Thunder radar more information blitzortung!


Radar de pluja more information rain snow radar


Visita la nostra xarxa de llocs de meteo:

Template documentation
and downloads

And another site



No particular awareness of the weather is required.    There are no Weather-warnings

Pagina Historial Weather Underground text

Diari Resum May 22, 2017 Unitats:  Mètric    Imperial   Tant
« Previous Dia
SegĂźent Dia »
Diari Setmana Mensual Anual Personalitzada
  Maxima: Minima: Media:
Temperatura: -17.8 °C -9.1 °C -5.2 °C
Punt de rosada: -17.8 °C -12.9 °C -11.7 °C
Humitat: Humidity % 36 % 49 %
Wind Speed: 0 km/h 0 km/h 11.6 km/h
RĂ fegues de vent: 0 km/h - -
Vent:- - SSW
Pression baro: 0 hPa 34395 hPa -
Precipitacions: 0 mm    
Historical Graphs
 
 
Dades de taula per May 22, 2017
Temps Temperatura Punt de rosada Pression baro Vent Wind Speed RĂ fegues de vent Humitat Rainfall Rate (Hourly)
-17.8 °C -17.8 °C 0 hPa Calm     Humidity % 0 mm
00:01 -8.3 °C -12.4 °C 34533.8 hPa SW 6 km/h 6 km/h 62 % 0 mm
00:06 -8.4 °C -12.3 °C 34533.8 hPa SW 3.7 km/h 3.7 km/h 63 % 0 mm
00:11 -8.4 °C -12.2 °C 34533.8 hPa Calm     64 % 0 mm
00:16 -8.4 °C -12.2 °C 34533.8 hPa SW 3.1 km/h   64 % 0 mm
04:40 -6.7 °C -10.4 °C 34533.8 hPa SW 5.1 km/h 5.1 km/h 65 % 0 mm
04:50 -6.3 °C -10.2 °C 34533.8 hPa SW 2.6 km/h 7.7 km/h 64 % 0 mm
04:55 -6.4 °C -10.5 °C 34496.6 hPa SSW 7.7 km/h 15.6 km/h 63 % 0 mm
05:05 -6.2 °C -10.5 °C 34496.6 hPa SSW 5.1 km/h 15.6 km/h 61 % 0 mm
05:15 -6.1 °C -10.9 °C 34496.6 hPa SSW 7.7 km/h 12.9 km/h 58 % 0 mm
05:25 -6 °C -10.8 °C 34496.6 hPa SSW 5.1 km/h 20.8 km/h 58 % 0 mm
10:33 -5.6 °C -10.7 °C 34496.6 hPa SSW 11.9 km/h 11.9 km/h 56 % 0 mm
10:38 -5.5 °C -10.9 °C 34496.6 hPa SW 11.9 km/h 11.9 km/h 54 % 0 mm
10:43 -5.1 °C -10.6 °C 34496.6 hPa SW 11.9 km/h 11.9 km/h 54 % 0 mm
10:48 -5.2 °C -10.7 °C 34496.6 hPa West 11.9 km/h 11.9 km/h 54 % 0 mm
10:53 -4.9 °C -10.7 °C 34496.6 hPa SW 14 km/h 14 km/h 52 % 0 mm
10:58 -4.7 °C -10.7 °C 34496.6 hPa SSW 15 km/h 15 km/h 51 % 0 mm
11:03 -4.5 °C -10.7 °C 34496.6 hPa WSW 9 km/h 9 km/h 50 % 0 mm
11:08 -4.7 °C -10.8 °C 34496.6 hPa SW 17.9 km/h 17.9 km/h 50 % 0 mm
11:13 -4.8 °C -11.2 °C 34496.6 hPa SSW 20.9 km/h 20.9 km/h 48 % 0 mm
11:18 -4.7 °C -11.3 °C 34496.6 hPa SW 15 km/h 15 km/h 47 % 0 mm
11:23 -4.6 °C -11.3 °C 34533.8 hPa SSW 15 km/h 15 km/h 47 % 0 mm
11:28 -4.3 °C -10.9 °C 34533.8 hPa SW 12.7 km/h 12.7 km/h 47 % 0 mm
11:33 -4.4 °C -11.1 °C 34533.8 hPa ESE 15 km/h 15 km/h 47 % 0 mm
11:38 -4.4 °C -11.1 °C 34496.6 hPa SSE 15 km/h 15 km/h 47 % 0 mm
11:43 -4.2 °C -11.1 °C 34496.6 hPa South 20.9 km/h 20.9 km/h 46 % 0 mm
11:48 -4.3 °C -11.2 °C 34496.6 hPa WSW 11.9 km/h 11.9 km/h 46 % 0 mm
11:53 -3.9 °C -10.8 °C 34496.6 hPa WSW 9 km/h 9 km/h 46 % 0 mm
11:58 -4.2 °C -11.1 °C 34496.6 hPa SW 20.9 km/h 20.9 km/h 46 % 0 mm
12:03 -4.2 °C -10.9 °C 34496.6 hPa WSW 11.6 km/h 11.6 km/h 47 % 0 mm
12:08 -4.2 °C -10.9 °C 34496.6 hPa SSW 23.8 km/h 23.8 km/h 47 % 0 mm
12:13 -4.1 °C -10.6 °C 34496.6 hPa SW 15 km/h 15 km/h 48 % 0 mm
12:18 -4.3 °C -11 °C 34496.6 hPa SW 23.8 km/h 23.8 km/h 47 % 0 mm
12:23 -4.2 °C -10.9 °C 34496.6 hPa South 23.8 km/h 23.8 km/h 47 % 0 mm
12:28 -3.9 °C -10.8 °C 34496.6 hPa SW 15 km/h 15 km/h 46 % 0 mm
12:33 -3.7 °C -10.6 °C 34496.6 hPa West 19.2 km/h 19.2 km/h 46 % 0 mm
12:38 -4 °C -11.1 °C 34496.6 hPa West 20.9 km/h 20.9 km/h 45 % 0 mm
12:43 -3.9 °C -11 °C 34496.6 hPa SW 20.9 km/h 20.9 km/h 45 % 0 mm
12:48 -3.8 °C -10.9 °C 34496.6 hPa SSW 25.4 km/h 25.4 km/h 45 % 0 mm
12:53 -3.9 °C -11 °C 34496.6 hPa SW 15 km/h 15 km/h 45 % 0 mm
12:54 -3.9 °C -11.2 °C 34496.6 hPa SW 15 km/h 15 km/h 44 % 0 mm
12:59 -3.7 °C -11.2 °C 34496.6 hPa SSW 20.9 km/h 20.9 km/h 43 % 0 mm
13:04 -3.6 °C -10.9 °C 34496.6 hPa SSE 15.6 km/h 15.6 km/h 44 % 0 mm
13:09 -3.7 °C -11 °C 34462.7 hPa SSW 23.8 km/h 23.8 km/h 44 % 0 mm
13:14 -3.9 °C -11.2 °C 34462.7 hPa SW 20.9 km/h 20.9 km/h 44 % 0 mm
13:19 -3.7 °C -11 °C 34462.7 hPa SW 17.9 km/h 17.9 km/h 44 % 0 mm
13:24 -3.8 °C -11.1 °C 34496.6 hPa SW 17.9 km/h 17.9 km/h 44 % 0 mm
13:29 -3.6 °C -10.9 °C 34496.6 hPa South 15 km/h 15 km/h 44 % 0 mm
13:34 -3.2 °C -10.6 °C 34496.6 hPa SW 11.1 km/h 11.1 km/h 44 % 0 mm
13:39 -3.2 °C -10.5 °C 34496.6 hPa West 15 km/h 15 km/h 44 % 0 mm
13:44 -3.1 °C -10.4 °C 34496.6 hPa WSW 15 km/h 15 km/h 44 % 0 mm
13:49 -3.2 °C -10.5 °C 34496.6 hPa SSW 16.1 km/h 16.1 km/h 44 % 0 mm
13:54 -3.3 °C -10.6 °C 34496.6 hPa WSW 17.9 km/h 17.9 km/h 44 % 0 mm
13:59 -3.3 °C -10.8 °C 34496.6 hPa SSW 15 km/h 15 km/h 43 % 0 mm
14:04 -3.3 °C -10.8 °C 34496.6 hPa WSW 15 km/h 15 km/h 43 % 0 mm
14:09 -3.1 °C -10.6 °C 34496.6 hPa SSW 15.6 km/h 15.6 km/h 43 % 0 mm
14:14 -3.3 °C -10.8 °C 34496.6 hPa SW 16.1 km/h 16.1 km/h 43 % 0 mm
14:19 -3.1 °C -10.7 °C 34496.6 hPa NW 15 km/h 15 km/h 43 % 0 mm
14:24 -3.1 °C -10.6 °C 34462.7 hPa SW 11.9 km/h 11.9 km/h 43 % 0 mm
14:29 -3.1 °C -10.6 °C 34462.7 hPa WSW 14.5 km/h 14.5 km/h 43 % 0 mm
14:34 -2.8 °C -10.6 °C 34462.7 hPa West 20.9 km/h 20.9 km/h 42 % 0 mm
14:39 -2.9 °C -10.7 °C 34462.7 hPa East 17.9 km/h 17.9 km/h 42 % 0 mm
14:44 -3 °C -10.8 °C 34462.7 hPa SW 15 km/h 15 km/h 42 % 0 mm
14:49 -2.7 °C -10.7 °C 34462.7 hPa SSW 17.9 km/h 17.9 km/h 41 % 0 mm
14:54 -2.7 °C -10.7 °C 34462.7 hPa WSW 16.1 km/h 16.1 km/h 41 % 0 mm
14:59 -2.9 °C -10.7 °C 34462.7 hPa WSW 15 km/h 15 km/h 42 % 0 mm
15:04 -3 °C -10.9 °C 34462.7 hPa WSW 20.9 km/h 20.9 km/h 41 % 0 mm
15:09 -2.6 °C -10.6 °C 34462.7 hPa SSE 15 km/h 15 km/h 41 % 0 mm
15:14 -2.4 °C -10.4 °C 34462.7 hPa SSE 11.9 km/h 11.9 km/h 41 % 0 mm
15:19 -2.7 °C -10.9 °C 34462.7 hPa WSW 20.9 km/h 20.9 km/h 40 % 0 mm
15:24 -2.8 °C -11 °C 34462.7 hPa SW 15.3 km/h 15.3 km/h 40 % 0 mm
15:29 -2.7 °C -10.9 °C 34462.7 hPa SSW 9 km/h 9 km/h 40 % 0 mm
15:34 -2.6 °C -11.1 °C 34462.7 hPa WSW 17.9 km/h 17.9 km/h 39 % 0 mm
15:39 -2.4 °C -10.8 °C 34462.7 hPa SE 7.6 km/h 7.6 km/h 39 % 0 mm
15:44 -2.3 °C -10.8 °C 34462.7 hPa WSW 11.9 km/h 11.9 km/h 39 % 0 mm
15:49 -2.4 °C -11.1 °C 34462.7 hPa SSW 17.9 km/h 17.9 km/h 38 % 0 mm
15:54 -2.7 °C -11.3 °C 34462.7 hPa WSW 15 km/h 15 km/h 38 % 0 mm
15:59 -2.5 °C -10.9 °C 34462.7 hPa WSW 17.9 km/h 17.9 km/h 39 % 0 mm
16:04 -2.4 °C -11.1 °C 34462.7 hPa WSW 29.8 km/h 29.8 km/h 38 % 0 mm
16:09 -2.5 °C -11.2 °C 34462.7 hPa SSE 17.9 km/h 17.9 km/h 38 % 0 mm
16:14 -2.3 °C -11 °C 34462.7 hPa SW 9 km/h 9 km/h 38 % 0 mm
16:19 -2.2 °C -10.9 °C 34462.7 hPa SW 15 km/h 15 km/h 38 % 0 mm
16:24 -2.1 °C -11.1 °C 34428.8 hPa SW 15 km/h 15 km/h 37 % 0 mm
16:29 -2.2 °C -11.1 °C 34428.8 hPa SSW 6 km/h 9.8 km/h 37 % 0 mm
16:31 -2 °C -10.9 °C 34428.8 hPa South 15 km/h 15 km/h 37 % 0 mm
16:36 -1.9 °C -10.9 °C 34428.8 hPa SW 9 km/h 9 km/h 37 % 0 mm
16:41 -2.6 °C -11.4 °C 34462.7 hPa SSW 20.9 km/h 20.9 km/h 37 % 0 mm
16:46 -2.6 °C -11.5 °C 34462.7 hPa SW 23.8 km/h 23.8 km/h 37 % 0 mm
16:51 -2.7 °C -11.6 °C 34462.7 hPa WSW 20.9 km/h 20.9 km/h 37 % 0 mm
16:56 -2.8 °C -11.8 °C 34462.7 hPa SW 29.8 km/h 29.8 km/h 36 % 0 mm
17:01 -2.9 °C -11.8 °C 34462.7 hPa SSW 15 km/h 15 km/h 37 % 0 mm
17:06 -2.9 °C -11.7 °C 34462.7 hPa SW 17.9 km/h 17.9 km/h 37 % 0 mm
17:11 -2.9 °C -11.8 °C 34462.7 hPa SSW 20.9 km/h 20.9 km/h 37 % 0 mm
17:16 -2.6 °C -11.7 °C 34462.7 hPa WSW 15 km/h 15 km/h 36 % 0 mm
17:21 -2.8 °C -11.7 °C 34462.7 hPa SW 26.9 km/h 26.9 km/h 37 % 0 mm
17:26 -3.1 °C -11.9 °C 34462.7 hPa SSE 32.8 km/h 32.8 km/h 37 % 0 mm
17:31 -3.2 °C -12 °C 34462.7 hPa SW 26.9 km/h 26.9 km/h 37 % 0 mm
17:36 -3.4 °C -12.2 °C 34462.7 hPa SSW 23.8 km/h 23.8 km/h 37 % 0 mm
17:42 -3.4 °C -12.2 °C 34428.8 hPa WSW 26.9 km/h 26.9 km/h 37 % 0 mm
17:47 -3.6 °C -12.4 °C 34428.8 hPa WSW 23.8 km/h 23.8 km/h 37 % 0 mm
17:52 -3.7 °C -12.4 °C 34428.8 hPa SSW 20.9 km/h 20.9 km/h 37 % 0 mm
17:57 -3.7 °C -12.4 °C 34462.7 hPa WSW 17.9 km/h 17.9 km/h 37 % 0 mm
18:02 -3.7 °C -12.4 °C 34462.7 hPa West 23.8 km/h 23.8 km/h 37 % 0 mm
18:07 -3.8 °C -12.6 °C 34462.7 hPa SW 15 km/h 15 km/h 37 % 0 mm
18:12 -3.9 °C -12.4 °C 34462.7 hPa SW 17.9 km/h 17.9 km/h 38 % 0 mm
18:17 -4.1 °C -12.6 °C 34462.7 hPa South 17.9 km/h 17.9 km/h 38 % 0 mm
18:22 -4 °C -12.5 °C 34462.7 hPa WSW 15.3 km/h 15.3 km/h 38 % 0 mm
18:27 -4.1 °C -12.6 °C 34462.7 hPa SW 26.9 km/h 26.9 km/h 38 % 0 mm
18:32 -4.1 °C -12.6 °C 34462.7 hPa SSE 15 km/h 15 km/h 38 % 0 mm
18:37 -4.1 °C -12.6 °C 34428.8 hPa WSW 23.8 km/h 23.8 km/h 38 % 0 mm
18:42 -4.3 °C -12.6 °C 34428.8 hPa SW 20.3 km/h 20.3 km/h 39 % 0 mm
18:47 -4.2 °C -12.4 °C 34428.8 hPa WSW 17.9 km/h 17.9 km/h 39 % 0 mm
18:52 -4.2 °C -12.4 °C 34428.8 hPa SW 16.6 km/h 16.6 km/h 39 % 0 mm
18:57 -4.2 °C -12.4 °C 34428.8 hPa SW 11.9 km/h 11.9 km/h 39 % 0 mm
19:02 -4.2 °C -12.4 °C 34428.8 hPa WSW 11.9 km/h 11.9 km/h 39 % 0 mm
19:07 -4.2 °C -12.4 °C 34462.7 hPa SSW 15 km/h 15 km/h 39 % 0 mm
19:12 -4.3 °C -12.3 °C 34462.7 hPa SW 12.7 km/h 12.7 km/h 40 % 0 mm
19:17 -4.4 °C -12.6 °C 34462.7 hPa SW 15 km/h 15 km/h 39 % 0 mm
19:22 -4.4 °C -12.4 °C 34395 hPa SW 9 km/h 9 km/h 40 % 0 mm
19:25 -8.3 °C -12.3 °C 34496.6 hPa WSW 2.6 km/h 5.1 km/h 62 % 0 mm
19:27 -4.5 °C -12.5 °C 34395 hPa SW 11.9 km/h 11.9 km/h 40 % 0 mm
19:32 -4.6 °C -12.6 °C 34395 hPa SSW 9 km/h 9 km/h 40 % 0 mm
19:35 -8.3 °C -12.3 °C 34496.6 hPa WSW 2.6 km/h 5.1 km/h 63 % 0 mm
19:37 -4.6 °C -12.6 °C 34395 hPa SW 15.3 km/h 15.3 km/h 40 % 0 mm
19:43 -4.7 °C -12.7 °C 34395 hPa SW 17.9 km/h 17.9 km/h 40 % 0 mm
19:45 -8.4 °C -12.3 °C 34496.6 hPa WSW 5.1 km/h 7.7 km/h 64 % 0 mm
19:48 -4.7 °C -12.7 °C 34395 hPa WSW 9 km/h 9 km/h 40 % 0 mm
19:53 -4.8 °C -12.8 °C 34395 hPa WSW 12.7 km/h 12.7 km/h 40 % 0 mm
19:55 -8.5 °C -12.3 °C 34533.8 hPa Calm   2.6 km/h 64 % 0 mm
19:58 -4.9 °C -12.9 °C 34395 hPa SW 9 km/h 9 km/h 40 % 0 mm
20:03 -4.9 °C -12.9 °C 34395 hPa WSW 6 km/h 6 km/h 40 % 0 mm
20:05 -8.6 °C -12.3 °C 34533.8 hPa Calm     64 % 0 mm
20:08 -4.9 °C -12.9 °C 34395 hPa WSW 6 km/h   40 % 0 mm
20:13 -4.9 °C -12.9 °C 34395 hPa WNW 6 km/h 6 km/h 40 % 0 mm
20:15 -8.6 °C -12.3 °C 34533.8 hPa Calm     64 % 0 mm
20:18 -5.1 °C -12.9 °C 34395 hPa WSW 9 km/h 9 km/h 41 % 0 mm
20:20 -5.1 °C -12.9 °C 34395 hPa West 6 km/h 6 km/h 41 % 0 mm
20:25 -5.2 °C -12.9 °C 34395 hPa Calm   5.1 km/h 41 % 0 mm
20:26 -5.3 °C -12.8 °C 34395 hPa SE 6 km/h 6 km/h 42 % 0 mm
20:29 -5.5 °C -12.8 °C 34395 hPa East 11.9 km/h 11.9 km/h 43 % 0 mm
20:31 -5.6 °C -12.7 °C 34395 hPa East 11.9 km/h 11.9 km/h 44 % 0 mm
20:35 -8.6 °C -12.2 °C 34533.8 hPa ENE 2.6 km/h 5.1 km/h 66 % 0 mm
20:36 -5.8 °C -12.7 °C 34395 hPa ESE 15 km/h 15 km/h 45 % 0 mm
20:41 -5.9 °C -12.6 °C 34395 hPa East 15 km/h 15 km/h 46 % 0 mm
20:42 -5.9 °C -12.6 °C 34395 hPa East 15 km/h 15 km/h 46 % 0 mm
20:45 -8.8 °C -12.3 °C 34496.6 hPa Calm   2.6 km/h 66 % 0 mm
20:47 -6 °C -12.6 °C 34395 hPa ESE 11.9 km/h 11.9 km/h 47 % 0 mm
20:52 -6.1 °C -12.4 °C 34395 hPa ESE 11.9 km/h 11.9 km/h 48 % 0 mm
20:55 -8.8 °C -12.2 °C 34533.8 hPa Calm     67 % 0 mm
20:57 -6.2 °C -12.4 °C 34395 hPa ENE 9 km/h 9 km/h 49 % 0 mm
21:02 -6.3 °C -12.3 °C 34395 hPa NE 6 km/h 6 km/h 50 % 0 mm
21:05 -8.7 °C -12 °C 34533.8 hPa NE 2.6 km/h 7.7 km/h 68 % 0 mm
21:07 -6.4 °C -12.2 °C 34428.8 hPa ENE 6.3 km/h 6.3 km/h 51 % 0 mm
21:12 -6.4 °C -12.3 °C 34428.8 hPa ENE 9 km/h 9 km/h 51 % 0 mm
21:15 -8.8 °C -12 °C 34533.8 hPa Calm   2.6 km/h 69 % 0 mm
21:17 -6.5 °C -12.2 °C 34428.8 hPa ESE 6.3 km/h 6.3 km/h 52 % 0 mm
21:23 -6.6 °C -12.2 °C 34462.7 hPa East 6 km/h 6 km/h 52 % 0 mm
21:25 -8.9 °C -12.1 °C 34533.8 hPa Calm   2.6 km/h 69 % 0 mm
21:28 -6.6 °C -12.2 °C 34462.7 hPa SW 3.1 km/h 3.1 km/h 52 % 0 mm
21:33 -6.6 °C -12.3 °C 34462.7 hPa WSW 6 km/h   52 % 0 mm
21:35 -8.9 °C -11.9 °C 34533.8 hPa Calm     70 % 0 mm
21:38 -6.7 °C -12.3 °C 34462.7 hPa Calm     52 % 0 mm
21:43 -6.7 °C -12.2 °C 34462.7 hPa NNE 6 km/h 6 km/h 53 % 0 mm
21:45 -8.9 °C -11.8 °C 34533.8 hPa Calm     71 % 0 mm
21:48 -6.7 °C -12.1 °C 34462.7 hPa NNE 6.3 km/h 6.3 km/h 54 % 0 mm
21:53 -6.7 °C -12.1 °C 34462.7 hPa NE 9 km/h 9 km/h 54 % 0 mm
21:55 -8.9 °C -11.7 °C 34533.8 hPa NNE 2.6 km/h 2.6 km/h 72 % 0 mm
21:58 -6.8 °C -12 °C 34462.7 hPa ENE 9 km/h 9 km/h 55 % 0 mm
22:03 -6.9 °C -12.1 °C 34462.7 hPa NNE 9 km/h 9 km/h 55 % 0 mm
22:05 -8.9 °C -11.6 °C 34533.8 hPa NE 2.6 km/h 5.1 km/h 73 % 0 mm
22:08 -7 °C -12 °C 34462.7 hPa East 6 km/h 6 km/h 56 % 0 mm
22:13 -7.1 °C -12.1 °C 34462.7 hPa NNE 9 km/h 9 km/h 56 % 0 mm
22:15 -8.9 °C -11.5 °C 34533.8 hPa Calm   5.1 km/h 74 % 0 mm
22:18 -7.1 °C -12 °C 34462.7 hPa ENE 6 km/h 6 km/h 57 % 0 mm
22:23 -7.2 °C -12 °C 34496.6 hPa NE 6 km/h 6 km/h 57 % 0 mm
22:25 -8.9 °C -11.5 °C 34533.8 hPa Calm   2.6 km/h 74 % 0 mm
22:28 -7.2 °C -12 °C 34496.6 hPa East 6 km/h 6 km/h 57 % 0 mm
22:33 -7.2 °C -12.1 °C 34496.6 hPa West 6 km/h 6 km/h 57 % 0 mm
22:35 -8.9 °C -11.5 °C 34533.8 hPa Calm   2.6 km/h 74 % 0 mm
22:38 -7.3 °C -12.1 °C 34496.6 hPa SW 6 km/h 6 km/h 58 % 0 mm
22:43 -7.4 °C -12 °C 34496.6 hPa WSW 3.1 km/h   59 % 0 mm
22:45 -8.9 °C -11.5 °C 34496.6 hPa NNW 2.6 km/h 5.1 km/h 74 % 0 mm
22:48 -7.4 °C -12 °C 34496.6 hPa Calm     59 % 0 mm
22:53 -7.5 °C -12.1 °C 34496.6 hPa Calm     59 % 0 mm
22:55 -8.9 °C -11.4 °C 34533.8 hPa Calm   2.6 km/h 75 % 0 mm
22:59 -7.5 °C -12.1 °C 34496.6 hPa WSW 3.1 km/h   59 % 0 mm
23:04 -7.5 °C -11.9 °C 34496.6 hPa Calm     60 % 0 mm
23:05 -8.9 °C -11.4 °C 34533.8 hPa WNW 2.6 km/h 5.1 km/h 75 % 0 mm
23:09 -7.5 °C -11.9 °C 34496.6 hPa Calm     60 % 0 mm
23:14 -7.6 °C -11.9 °C 34496.6 hPa Calm     60 % 0 mm
23:15 -9 °C -11.3 °C 34496.6 hPa Calm   2.6 km/h 76 % 0 mm
23:19 -7.6 °C -11.8 °C 34496.6 hPa Calm     61 % 0 mm
23:24 -7.6 °C -11.8 °C 34496.6 hPa NNE 3.1 km/h 3.1 km/h 61 % 0 mm
23:25 -9.1 °C -11.4 °C 34533.8 hPa Calm   5.1 km/h 76 % 0 mm
23:30 -7.6 °C -11.8 °C 34496.6 hPa NNW 3.1 km/h 3.1 km/h 61 % 0 mm
23:35 -7.6 °C -11.8 °C 34496.6 hPa NE 5.1 km/h   61 % 0 mm
23:40 -7.6 °C -11.8 °C 34496.6 hPa NNE 5.6 km/h   61 % 0 mm
23:45 -7.7 °C -11.9 °C 34496.6 hPa NE 2.6 km/h 7.7 km/h 61 % 0 mm
23:50 -7.8 °C -11.9 °C 34496.6 hPa NE 6 km/h 6 km/h 62 % 0 mm
23:55 -7.8 °C -11.9 °C 34496.6 hPa ENE 4.2 km/h 4.2 km/h 62 % 0 mm
Meteo Sesrovires
Elogis d' Weather Underground - 1.5 mb

Guio original per  Jim McMurry - jmcmurry@mwt.net Adaptat per a la plantilla per  Wim van der Kuil - Leuven-Template.eu

Trobareu la nostra informacio del temps tambe a:

Weather Underground

AWEKAS